Time;durP1;ratioP1;P1;durP2;ratioP2;P2;SDS_P1;SDS_P2;PMS_P1;PMS_P2;Temp;Humidity;BMP_temperature;BMP_pressure;BME280_temperature;BME280_humidity;BME280_pressure;Samples;Min_cycle;Max_cycle;Signal;HPM_P1;HPM_P2
2023/03/31 00:27:16;;;;;;;7.13;4.53;;;;;;;3.74;58.88;99296.25;3931607;28;20063;-78
2023/03/31 00:31:55;;;;;;;6.53;4.75;;;;;;;3.73;59.01;99292.81;4717255;30;20425;-77
2023/03/31 00:35:08;;;;;;;;;;;;;;;3.72;59.39;99293.66;4715217;30;20061;-78
2023/03/31 00:38:48;;;;;;;7.07;4.82;;;;;;;3.51;58.43;99265.97;4716403;30;20292;-79
2023/03/31 00:42:53;;;;;;;7.75;4.47;;;;;;;3.38;58.99;99246.97;4692660;30;20065;-77
2023/03/31 00:51:41;;;;;;;7.63;5.20;;;;;;;3.51;58.78;99278.84;4659896;30;20166;-76
2023/03/31 00:55:52;;;;;;;8.35;5.25;;;;;;;3.47;59.00;99279.66;4662073;30;20063;-76
2023/03/31 00:59:26;;;;;;;6.57;4.93;;;;;;;3.50;59.36;99269.41;4661203;30;20043;-78
2023/03/31 01:03:08;;;;;;;6.47;4.63;;;;;;;3.52;58.87;99267.72;4655086;30;20054;-78
2023/03/31 01:11:26;;;;;;;7.35;4.60;;;;;;;3.51;58.57;99262.56;4661362;30;20065;-76
2023/03/31 01:15:05;;;;;;;6.10;4.45;;;;;;;3.37;59.54;99267.53;4679808;30;20054;-79
2023/03/31 01:37:55;;;;;;;8.02;4.55;;;;;;;3.32;58.81;99244.31;4649313;30;20053;-73
2023/03/31 01:41:21;;;;;;;7.53;4.50;;;;;;;3.23;59.25;99239.09;4632156;30;20573;-72
2023/03/31 01:49:45;;;;;;;5.97;3.83;;;;;;;3.22;59.73;99235.63;4717183;30;21576;-75
2023/03/31 01:53:13;;;;;;;8.20;4.40;;;;;;;3.15;59.43;99228.72;4714977;30;20581;-75
2023/03/31 01:57:00;;;;;;;5.35;3.78;;;;;;;2.86;59.73;99182.94;4625814;30;20118;-76
2023/03/31 02:00:43;;;;;;;5.57;4.00;;;;;;;3.02;59.07;99222.53;4643325;30;20062;-74
2023/03/31 02:04:15;;;;;;;7.07;3.78;;;;;;;3.12;59.79;99226.09;4640498;30;20228;-76
2023/03/31 02:08:03;;;;;;;5.88;4.25;;;;;;;3.08;59.44;99206.31;4643353;30;20066;-75
2023/03/31 02:11:40;;;;;;;5.97;4.18;;;;;;;3.00;59.68;99231.94;4642315;30;20051;-75
2023/03/31 02:20:25;;;;;;;4.88;3.53;;;;;;;3.03;59.93;99223.41;4708768;30;20079;-75
2023/03/31 02:23:57;;;;;;;6.65;3.95;;;;;;;3.14;59.74;99238.13;4708158;30;20088;-76
2023/03/31 02:32:16;;;;;;;6.05;4.22;;;;;;;2.96;59.49;99236.19;4710944;30;20369;-76
2023/03/31 02:37:02;;;;;;;7.00;4.35;;;;;;;3.03;59.63;99269.66;4639473;30;20057;-74
2023/03/31 02:40:52;;;;;;;6.03;4.03;;;;;;;3.12;60.25;99260.38;4665323;30;20101;-75
2023/03/31 02:44:23;;;;;;;6.18;4.30;;;;;;;3.11;59.70;99232.06;4653814;30;20069;-74
2023/03/31 02:48:10;;;;;;;10.90;4.60;;;;;;;3.27;59.97;99257.13;4715693;30;20056;-77
2023/03/31 02:56:12;;;;;;;7.35;4.00;;;;;;;3.03;59.59;99277.38;4693618;30;20065;-76
2023/03/31 02:59:52;;;;;;;5.05;3.95;;;;;;;3.03;59.89;99274.81;4684088;30;20426;-75
2023/03/31 03:04:15;;;;;;;7.45;4.18;;;;;;;3.11;60.33;99240.63;4661169;30;20233;-78
2023/03/31 03:08:23;;;;;;;5.60;3.75;;;;;;;3.09;59.88;99211.47;4644483;30;20059;-76
2023/03/31 03:12:06;;;;;;;6.63;3.15;;;;;;;2.90;60.53;99194.97;4648741;30;20062;-75
2023/03/31 03:15:30;;;;;;;7.07;3.15;;;;;;;2.96;60.33;99202.78;4661526;30;20054;-76
2023/03/31 03:19:02;;;;;;;4.32;3.38;;;;;;;2.99;60.49;99184.78;4679901;30;20060;-76
2023/03/31 03:22:43;;;;;;;6.18;3.15;;;;;;;3.12;60.22;99213.25;4678540;30;20057;-76
2023/03/31 03:26:22;;;;;;;4.22;3.17;;;;;;;3.09;60.31;99185.75;4680547;30;20050;-77
2023/03/31 03:30:12;;;;;;;6.47;4.22;;;;;;;3.06;60.47;99172.91;4680279;30;20064;-75
2023/03/31 03:33:50;;;;;;;6.53;2.90;;;;;;;3.35;60.04;99210.91;4683465;30;20132;-75
2023/03/31 03:37:24;;;;;;;5.35;2.78;;;;;;;3.33;60.18;99199.75;4713743;30;20061;-75
2023/03/31 03:45:25;;;;;;;3.45;2.92;;;;;;;3.34;59.92;99193.75;4713290;30;20072;-74
2023/03/31 03:49:41;;;;;;;5.03;2.67;;;;;;;3.34;59.80;99192.91;4704851;30;20057;-75
2023/03/31 03:54:00;;;;;;;4.03;2.83;;;;;;;3.24;60.14;99194.53;4681159;30;20376;-75
2023/03/31 03:58:30;;;;;;;5.97;3.20;;;;;;;3.10;59.91;99182.34;4679855;30;20168;-75
2023/03/31 04:03:09;;;;;;;3.83;3.13;;;;;;;3.17;60.28;99178.16;4651343;30;20070;-74
2023/03/31 04:07:24;;;;;;;4.65;3.20;;;;;;;3.27;60.16;99172.25;4652773;30;20141;-75
2023/03/31 04:11:45;;;;;;;3.90;3.10;;;;;;;3.29;59.66;99162.84;4630256;31;20091;-76
2023/03/31 04:24:40;;;;;;;4.05;2.90;;;;;;;3.25;60.20;99153.38;4618745;31;20481;-76
2023/03/31 04:28:13;;;;;;;5.05;3.53;;;;;;;3.26;60.38;99141.41;4633433;30;20077;-77
2023/03/31 04:46:46;;;;;;;5.65;3.78;;;;;;;3.42;60.45;99175.88;4702014;30;20068;-76
2023/03/31 04:51:19;;;;;;;5.78;3.63;;;;;;;3.46;59.46;99167.31;4700187;30;20088;-79
2023/03/31 05:04:57;;;;;;;7.30;4.57;;;;;;;3.50;60.17;99184.50;4654054;30;20057;-76
2023/03/31 05:54:35;;;;;;;7.82;3.83;;;;;;;4.27;59.43;99121.63;4538551;31;20071;-76
2023/03/31 07:30:19;;;;;;;9.20;5.70;;;;;;;5.86;56.14;99072.97;4549988;31;20068;-80
2023/03/31 07:34:58;;;;;;;9.75;6.30;;;;;;;5.79;56.17;99070.41;4582817;31;20070;-80
2023/03/31 07:39:46;;;;;;;15.75;6.15;;;;;;;5.76;55.92;99070.41;4599712;31;20067;-79
2023/03/31 07:44:16;;;;;;;11.90;6.20;;;;;;;5.75;56.87;99058.34;4574006;31;20063;-80
2023/03/31 07:49:06;;;;;;;9.18;6.50;;;;;;;4.81;56.53;98895.84;4596946;31;20142;-77
2023/03/31 10:36:22;;;;;;;9.18;5.80;;;;;;;4.79;58.85;98900.16;4573170;31;20105;-77
2023/03/31 10:44:59;;;;;;;9.10;5.63;;;;;;;5.05;58.95;98914.75;4503685;31;20074;-77
2023/03/31 10:54:16;;;;;;;11.50;6.00;;;;;;;5.45;59.43;98890.63;4448171;32;20078;-75
2023/03/31 10:58:49;;;;;;;9.35;5.55;;;;;;;5.64;59.47;98882.84;4460451;32;20078;-77
2023/03/31 11:03:07;;;;;;;9.50;5.35;;;;;;;5.79;59.31;98880.19;4465361;32;20442;-77
2023/03/31 11:20:41;;;;;;;10.05;5.38;;;;;;;6.22;59.49;98858.50;4523845;31;20635;-76
2023/03/31 11:24:38;;;;;;;10.38;5.72;;;;;;;5.95;59.16;98828.50;4540806;31;20104;-78
2023/03/31 11:28:37;;;;;;;8.02;5.25;;;;;;;6.04;59.27;98869.78;4535102;31;20790;-78
2023/03/31 11:33:09;;;;;;;9.43;6.18;;;;;;;5.88;59.46;98864.66;4557407;31;20101;-77
2023/03/31 11:37:12;;;;;;;8.77;5.60;;;;;;;5.77;60.01;98856.09;4581416;31;20072;-76
2023/03/31 12:04:26;;;;;;;12.05;6.28;;;;;;;5.32;61.44;98838.22;4545655;31;20093;-78
2023/03/31 12:08:43;;;;;;;10.10;5.80;;;;;;;5.34;60.96;98838.19;4562042;31;21263;-80
2023/03/31 12:41:34;;;;;;;12.30;7.40;;;;;;;5.37;61.56;98805.50;4451825;32;20524;-75
2023/03/31 12:45:28;;;;;;;12.48;7.72;;;;;;;5.32;61.30;98803.78;4478271;31;20071;-75
2023/03/31 12:49:14;;;;;;;10.80;6.65;;;;;;;5.31;61.29;98779.72;4471551;32;20099;-75
2023/03/31 12:58:35;;;;;;;11.73;6.97;;;;;;;5.31;61.65;98784.88;4419168;32;20171;-76
2023/03/31 13:02:44;;;;;;;13.45;7.47;;;;;;;5.29;61.61;98784.03;4461215;31;20068;-77
2023/03/31 13:11:10;;;;;;;12.50;7.82;;;;;;;5.23;61.58;98784.06;4570691;31;20136;-75
2023/03/31 13:15:24;;;;;;;13.85;7.93;;;;;;;5.25;61.29;98780.63;4510122;31;20077;-78
2023/03/31 13:19:19;;;;;;;12.82;8.07;;;;;;;5.30;61.47;98774.59;4513070;31;20122;-78
2023/03/31 13:22:56;;;;;;;14.02;8.35;;;;;;;5.19;61.76;98748.81;4535063;31;20185;-74
2023/03/31 13:26:36;;;;;;;13.45;8.30;;;;;;;5.34;62.06;98769.41;4622178;30;20070;-77
2023/03/31 13:30:05;;;;;;;13.45;7.63;;;;;;;5.26;62.28;98766.00;4619101;30;20055;-76
2023/03/31 13:33:50;;;;;;;11.75;7.20;;;;;;;5.16;62.78;98759.16;4621839;30;20445;-74
2023/03/31 13:37:30;;;;;;;12.90;7.10;;;;;;;5.08;62.27;98752.31;4622215;30;20089;-72
2023/03/31 13:40:33;;;;;;;12.75;7.72;;;;;;;5.14;62.77;98746.25;4643396;30;20168;-76
2023/03/31 13:43:37;;;;;;;14.27;7.82;;;;;;;4.97;61.69;98749.75;4653099;30;20411;-74
2023/03/31 13:46:45;;;;;;;15.65;8.40;;;;;;;4.96;62.71;98753.19;4673489;30;20060;-73
2023/03/31 13:50:31;;;;;;;17.10;8.27;;;;;;;5.02;62.63;98757.47;4672606;30;20579;-74
2023/03/31 13:54:15;;;;;;;12.43;7.43;;;;;;;5.08;62.74;98754.88;4671698;30;20148;-74
2023/03/31 14:03:24;;;;;;;12.93;7.38;;;;;;;5.22;63.00;98753.97;4728204;30;20533;-74
2023/03/31 14:07:09;;;;;;;12.40;7.30;;;;;;;5.24;62.85;98752.22;4714208;30;20049;-74
2023/03/31 14:10:41;;;;;;;12.20;7.10;;;;;;;5.28;62.55;98748.78;4721970;30;20110;-75
2023/03/31 14:14:39;;;;;;;12.63;7.15;;;;;;;5.27;62.88;98741.91;4713770;30;20084;-75
2023/03/31 14:27:50;;;;;;;13.32;7.22;;;;;;;5.12;62.89;98737.66;4671893;30;20191;-74
2023/03/31 14:36:15;;;;;;;15.60;7.80;;;;;;;5.18;63.05;98741.97;4707528;30;20060;-75
2023/03/31 14:54:06;;;;;;;15.27;7.95;;;;;;;5.06;62.46;98717.06;4679850;30;20200;-74
2023/03/31 14:57:38;;;;;;;13.15;7.38;;;;;;;4.67;63.14;98658.75;4704810;30;20057;-76
2023/03/31 15:04:19;;;;;;;;;;;;;;;5.23;63.03;98730.75;4683008;30;20056;-74
2023/03/31 15:08:56;;;;;;;12.93;6.40;;;;;;;5.17;62.41;98727.34;4671506;30;20364;-74
2023/03/31 15:12:42;;;;;;;10.97;6.60;;;;;;;5.09;62.67;98725.66;4671077;30;20104;-77
2023/03/31 15:16:51;;;;;;;13.75;6.20;;;;;;;5.11;62.37;98726.50;4677143;30;20543;-72
2023/03/31 15:20:20;;;;;;;13.38;7.40;;;;;;;5.18;62.52;98717.00;4682973;30;20065;-74
2023/03/31 15:24:03;;;;;;;12.45;6.38;;;;;;;5.10;62.34;98719.63;4680376;30;20077;-73
2023/03/31 15:27:49;;;;;;;10.70;6.53;;;;;;;5.06;62.90;98704.19;4698647;30;20387;-74
2023/03/31 15:35:23;;;;;;;12.40;7.53;;;;;;;3.94;62.40;98505.31;4669159;30;20226;-77
2023/03/31 15:51:59;;;;;;;14.38;7.80;;;;;;;5.13;62.95;98723.91;4685406;30;20574;-78
2023/03/31 15:56:06;;;;;;;15.15;8.27;;;;;;;5.14;62.85;98723.03;4689119;30;20061;-75
2023/03/31 15:59:41;;;;;;;13.18;8.00;;;;;;;5.11;62.65;98720.47;4712419;30;20057;-73
2023/03/31 16:03:15;;;;;;;15.70;8.50;;;;;;;4.87;63.50;98686.19;4710354;30;20053;-73
2023/03/31 16:07:10;;;;;;;14.05;8.55;;;;;;;5.10;62.53;98724.78;4710396;30;20551;-76
2023/03/31 16:11:39;;;;;;;15.15;8.68;;;;;;;5.11;63.76;98723.94;4653631;30;20054;-75
2023/03/31 16:16:03;;;;;;;15.50;8.70;;;;;;;5.15;63.06;98726.50;4651613;30;20065;-75
2023/03/31 16:20:35;;;;;;;18.38;8.15;;;;;;;4.97;62.75;98711.09;4648417;30;20070;-76
2023/03/31 16:56:39;;;;;;;14.52;8.63;;;;;;;3.46;63.39;98496.81;4672659;30;20134;-78
2023/03/31 17:01:15;;;;;;;15.75;9.07;;;;;;;4.90;63.73;98726.56;4603544;31;20449;-75
2023/03/31 17:10:12;;;;;;;16.25;10.20;;;;;;;4.92;63.18;98702.50;4593274;31;20434;-78
2023/03/31 17:13:55;;;;;;;19.30;11.15;;;;;;;4.39;63.89;98618.50;4574248;31;20179;-78
2023/03/31 17:18:36;;;;;;;17.45;10.68;;;;;;;4.99;64.15;98705.91;4594780;31;20095;-79
2023/03/31 17:35:55;;;;;;;22.33;12.68;;;;;;;4.91;63.55;98687.03;4549127;31;20134;-78
2023/03/31 17:45:13;;;;;;;22.77;13.73;;;;;;;4.81;64.38;98686.22;4527396;31;20065;-78
2023/03/31 18:41:01;;;;;;;17.95;10.23;;;;;;;4.97;64.69;98684.41;4582088;31;20539;-78
2023/03/31 19:14:32;;;;;;;23.70;13.80;;;;;;;4.48;64.74;98650.25;4660312;30;20097;-78
2023/03/31 19:18:51;;;;;;;21.58;12.55;;;;;;;4.20;64.99;98593.63;4665454;30;20519;-74
2023/03/31 19:27:29;;;;;;;17.85;10.40;;;;;;;3.60;64.70;98483.94;4677678;30;20058;-77
2023/03/31 19:32:23;;;;;;;18.52;9.68;;;;;;;4.47;64.72;98645.94;4614346;30;20062;-77
2023/03/31 19:36:46;;;;;;;16.33;10.02;;;;;;;4.55;65.15;98648.50;4624575;30;20051;-80
2023/03/31 19:41:05;;;;;;;17.50;9.95;;;;;;;4.59;64.50;98641.59;4575451;31;20073;-76
2023/03/31 20:09:05;;;;;;;;;;;;;;;;;;;;;
2023/03/31 20:59:56;;;;;;;13.90;8.85;;;;;;;4.58;65.39;98617.56;4685344;30;20140;-78
2023/03/31 21:19:21;;;;;;;17.00;10.82;;;;;;;4.48;65.84;98610.72;4663517;30;20081;-79
2023/03/31 21:24:02;;;;;;;17.30;10.90;;;;;;;4.46;65.41;98608.16;4646683;30;20203;-81
2023/03/31 21:28:57;;;;;;;15.75;10.25;;;;;;;4.40;65.44;98615.06;4644664;30;20049;-79
2023/03/31 21:55:54;;;;;;;27.33;14.93;;;;;;;4.28;66.43;98623.69;4613193;31;20066;-79
2023/03/31 22:04:21;;;;;;;22.38;12.95;;;;;;;4.16;65.80;98607.38;4526568;31;20066;-80
2023/03/31 22:13:47;;;;;;;24.70;13.02;;;;;;;4.21;66.00;98608.22;4551467;31;20069;-79
2023/03/31 22:26:22;;;;;;;20.85;12.18;;;;;;;4.34;66.14;98592.72;4412778;32;20065;-78
2023/03/31 22:30:30;;;;;;;;;;;;;;;4.32;66.62;98589.28;4439011;32;20112;-79
2023/03/31 22:39:34;;;;;;;19.05;11.13;;;;;;;4.10;65.79;98561.03;4485701;31;20187;-79
2023/03/31 22:44:13;;;;;;;20.00;11.20;;;;;;;4.23;65.38;98585.03;4516994;31;20183;-77
2023/03/31 22:48:54;;;;;;;19.50;11.23;;;;;;;4.15;65.31;98574.75;4516444;31;20090;-80
2023/03/31 23:01:31;;;;;;;18.38;10.85;;;;;;;3.97;65.59;98578.25;4503756;31;20173;-76
2023/03/31 23:05:14;;;;;;;15.50;9.20;;;;;;;3.77;66.15;98545.66;4590979;31;20048;-78
2023/03/31 23:13:16;;;;;;;16.95;10.32;;;;;;;4.00;66.33;98578.22;4631122;30;20066;-76
2023/03/31 23:17:05;;;;;;;20.45;11.73;;;;;;;4.12;66.51;98581.66;4609751;30;20067;-77
2023/03/31 23:20:38;;;;;;;18.52;11.60;;;;;;;4.15;66.69;98579.91;4662440;30;21508;-78
2023/03/31 23:24:28;;;;;;;20.60;12.17;;;;;;;4.20;66.73;98577.31;4692837;30;20185;-76
2023/03/31 23:28:25;;;;;;;19.25;11.25;;;;;;;4.17;66.92;98567.88;4691859;30;20061;-76
2023/03/31 23:31:55;;;;;;;23.45;12.73;;;;;;;4.08;66.31;98562.78;4678376;30;20091;-76
2023/03/31 23:35:23;;;;;;;20.77;12.10;;;;;;;4.02;67.01;98562.78;4667481;30;20054;-76
2023/03/31 23:39:45;;;;;;;24.50;12.15;;;;;;;3.85;66.75;98547.38;4672224;30;20601;-74
2023/03/31 23:43:29;;;;;;;18.95;12.35;;;;;;;3.91;66.48;98555.94;4664967;30;20531;-77
2023/03/31 23:47:22;;;;;;;20.00;11.30;;;;;;;3.96;66.81;98563.66;4681207;30;20165;-77
2023/03/31 23:50:50;;;;;;;20.85;11.68;;;;;;;4.00;66.97;98577.38;4683371;30;20093;-75
2023/03/31 23:54:21;;;;;;;20.10;11.93;;;;;;;3.91;66.91;98566.22;4697096;30;20148;-75
2023/03/31 23:58:10;;;;;;;17.85;10.35;;;;;;;3.97;67.10;98579.94;4705379;30;20127;-76
